createdAt,value
2022-12-19T00:00:33.379Z,12.67
2022-12-19T00:03:01.821Z,18.80
2022-12-19T00:05:30.230Z,13.43
2022-12-19T00:07:58.980Z,20.37
2022-12-19T00:10:33.030Z,13.23
2022-12-19T00:13:01.368Z,18.70
2022-12-19T00:15:31.220Z,14.77
2022-12-19T00:17:59.604Z,16.57
2022-12-19T00:20:28.090Z,17.90
2022-12-19T00:22:56.462Z,14.93
2022-12-19T00:25:24.841Z,18.23
2022-12-19T00:27:53.526Z,18.87
2022-12-19T00:30:21.911Z,11.83
2022-12-19T00:32:51.383Z,18.80
2022-12-19T00:35:19.745Z,16.10
2022-12-19T00:37:49.662Z,14.77
2022-12-19T00:40:18.642Z,19.00
2022-12-19T00:42:53.271Z,15.23
2022-12-19T00:45:22.123Z,14.63
2022-12-19T00:47:51.890Z,13.30
2022-12-19T00:50:20.308Z,21.20
2022-12-19T00:52:48.646Z,12.63
2022-12-19T00:55:19.250Z,19.13
2022-12-19T00:57:48.189Z,21.03
2022-12-19T01:00:17.921Z,15.20
2022-12-19T01:02:46.349Z,14.57
2022-12-19T01:05:15.871Z,15.20
2022-12-19T01:07:44.281Z,20.53
2022-12-19T01:10:12.590Z,14.90
2022-12-19T01:12:48.807Z,20.63
2022-12-19T01:15:18.112Z,21.00
2022-12-19T01:17:46.725Z,16.90
2022-12-19T01:20:22.219Z,20.97
2022-12-19T01:22:58.574Z,17.93
2022-12-19T01:25:28.248Z,20.93
2022-12-19T01:27:56.658Z,19.83
2022-12-19T01:30:25.108Z,18.00
2022-12-19T01:32:54.397Z,21.80
2022-12-19T01:35:24.138Z,16.90
2022-12-19T01:37:56.102Z,16.87
2022-12-19T01:40:35.275Z,15.47
2022-12-19T01:43:03.909Z,20.90
2022-12-19T01:45:34.859Z,19.53
2022-12-19T01:48:15.229Z,24.27
2022-12-19T01:50:47.079Z,16.27
2022-12-19T01:53:26.922Z,25.13
2022-12-19T01:55:56.758Z,18.77
2022-12-19T01:58:25.711Z,15.70
2022-12-19T02:00:54.100Z,18.03
2022-12-19T02:03:24.424Z,13.60
2022-12-19T02:05:54.785Z,17.83
2022-12-19T02:08:23.899Z,15.97
2022-12-19T02:10:52.343Z,17.20
2022-12-19T02:13:20.985Z,12.30
2022-12-19T02:15:54.015Z,16.13
2022-12-19T02:18:27.012Z,14.97
2022-12-19T02:21:22.194Z,14.93
2022-12-19T02:24:09.003Z,17.57
2022-12-19T02:26:51.740Z,19.63
2022-12-19T02:29:30.491Z,16.43
2022-12-19T02:32:02.958Z,16.53
2022-12-19T02:34:33.089Z,18.67
2022-12-19T02:37:04.197Z,15.50
2022-12-19T02:39:35.976Z,16.17
2022-12-19T02:42:07.533Z,16.47
2022-12-19T02:44:38.167Z,13.27
2022-12-19T02:47:08.594Z,14.93
2022-12-19T02:49:37.246Z,20.60
2022-12-19T02:52:12.400Z,18.67
2022-12-19T02:54:42.347Z,17.67
2022-12-19T02:57:17.355Z,19.53
2022-12-19T02:59:53.585Z,13.77
2022-12-19T03:02:33.411Z,16.53
2022-12-19T03:05:07.593Z,17.27
2022-12-19T03:07:38.103Z,18.33
2022-12-19T03:10:11.650Z,16.97
2022-12-19T03:12:41.127Z,19.33
2022-12-19T03:15:13.048Z,11.97
2022-12-19T03:17:42.879Z,12.57
2022-12-19T03:20:17.341Z,12.50
2022-12-19T03:22:45.648Z,12.40
2022-12-19T03:25:13.989Z,14.57
2022-12-19T03:27:42.618Z,13.07
2022-12-19T03:30:13.353Z,13.37
2022-12-19T03:32:45.109Z,14.23
2022-12-19T03:35:17.625Z,18.50
2022-12-19T03:37:46.495Z,17.63
2022-12-19T03:40:17.007Z,14.80
2022-12-19T03:43:04.520Z,15.47
2022-12-19T03:45:36.222Z,11.17
2022-12-19T03:48:09.084Z,13.90
2022-12-19T03:50:42.975Z,16.13
2022-12-19T03:53:17.363Z,12.37
2022-12-19T03:55:49.505Z,13.47
2022-12-19T03:58:20.910Z,12.67
2022-12-19T04:00:50.830Z,33.70
2022-12-19T04:03:21.391Z,13.30
2022-12-19T04:05:50.383Z,12.63
2022-12-19T04:08:19.482Z,12.70
2022-12-19T04:10:49.707Z,10.47
2022-12-19T04:13:19.565Z,11.63
2022-12-19T04:15:51.847Z,12.60
2022-12-19T04:18:22.023Z,10.60
2022-12-19T04:20:53.217Z,11.20
2022-12-19T04:23:24.056Z,16.60
2022-12-19T04:25:53.085Z,10.23
2022-12-19T04:28:24.227Z,13.13
2022-12-19T04:30:53.477Z,12.17
2022-12-19T04:33:23.456Z,14.90
2022-12-19T04:35:51.895Z,15.93
2022-12-19T04:38:20.242Z,14.57
2022-12-19T04:40:48.657Z,12.10
2022-12-19T04:43:17.074Z,11.50
2022-12-19T04:45:45.991Z,8.53
2022-12-19T04:48:14.368Z,13.07
2022-12-19T04:50:44.109Z,11.93
2022-12-19T04:53:12.685Z,12.53
2022-12-19T04:55:41.299Z,12.77
2022-12-19T04:58:09.903Z,14.20
2022-12-19T05:00:38.230Z,10.37
2022-12-19T05:03:06.705Z,15.27
2022-12-19T05:05:35.198Z,11.30
2022-12-19T05:08:04.900Z,15.47
2022-12-19T05:10:33.243Z,15.30
2022-12-19T05:13:01.797Z,15.70
2022-12-19T05:15:30.242Z,10.87
2022-12-19T05:17:59.174Z,12.60
2022-12-19T05:20:27.507Z,8.53
2022-12-19T05:22:55.939Z,12.23
2022-12-19T05:25:26.221Z,17.37
2022-12-19T05:27:54.569Z,16.37
2022-12-19T05:30:24.366Z,11.20
2022-12-19T05:32:52.787Z,13.37
2022-12-19T05:35:21.089Z,10.50
2022-12-19T05:37:49.424Z,13.90
2022-12-19T05:40:17.907Z,12.00
2022-12-19T05:42:47.664Z,17.03
2022-12-19T05:45:16.028Z,14.33
2022-12-19T05:47:46.627Z,16.27
2022-12-19T05:50:16.136Z,17.30
2022-12-19T05:52:44.536Z,12.73
2022-12-19T05:55:13.224Z,12.23
2022-12-19T05:57:41.665Z,17.60
2022-12-19T06:00:12.393Z,7.37
2022-12-19T06:02:41.002Z,13.90
2022-12-19T06:05:09.830Z,15.27
2022-12-19T06:07:38.564Z,18.40
2022-12-19T06:10:07.525Z,15.93
2022-12-19T06:12:36.953Z,13.67
2022-12-19T06:15:08.232Z,13.90
2022-12-19T06:17:38.017Z,13.73
2022-12-19T06:20:07.076Z,15.37
2022-12-19T06:22:36.155Z,13.47
2022-12-19T06:25:05.130Z,7.93
2022-12-19T06:27:33.506Z,13.40
2022-12-19T06:30:01.939Z,10.30
2022-12-19T06:32:33.539Z,10.87
2022-12-19T06:35:07.963Z,11.77
2022-12-19T06:37:39.354Z,9.23
2022-12-19T06:40:28.726Z,12.43
2022-12-19T06:42:56.090Z,9.20
2022-12-19T06:45:24.135Z,10.47
2022-12-19T06:47:52.527Z,10.03
2022-12-19T06:50:22.244Z,8.60
2022-12-19T06:52:50.815Z,10.77
2022-12-19T06:55:19.372Z,14.43
2022-12-19T06:57:47.694Z,10.07
2022-12-19T07:00:16.906Z,11.43
2022-12-19T07:02:46.539Z,10.87
2022-12-19T07:05:15.466Z,10.33
2022-12-19T07:07:45.231Z,8.47
2022-12-19T07:10:13.639Z,11.47
2022-12-19T07:12:42.372Z,15.03
2022-12-19T07:15:11.007Z,11.63
2022-12-19T07:17:39.694Z,12.30
2022-12-19T07:20:08.562Z,19.33
2022-12-19T07:22:37.382Z,9.27
2022-12-19T07:25:07.955Z,8.57
2022-12-19T07:27:36.795Z,7.17
2022-12-19T07:30:05.645Z,8.17
2022-12-19T07:32:33.998Z,9.43
2022-12-19T07:35:02.673Z,7.03
2022-12-19T07:37:31.066Z,7.07
2022-12-19T07:39:59.402Z,8.20
2022-12-19T07:42:32.663Z,7.80
2022-12-19T07:45:01.519Z,6.17
2022-12-19T07:47:30.041Z,7.00
2022-12-19T07:49:58.385Z,9.27
2022-12-19T07:52:26.702Z,7.30
2022-12-19T07:54:55.108Z,8.20
2022-12-19T07:57:23.419Z,7.73
2022-12-19T07:59:53.144Z,7.80
2022-12-19T08:02:21.728Z,7.20
2022-12-19T08:04:50.959Z,11.53
2022-12-19T08:07:19.287Z,6.60
2022-12-19T08:09:47.668Z,6.87
2022-12-19T08:12:16.968Z,5.43
2022-12-19T08:14:45.279Z,7.03
2022-12-19T08:17:22.351Z,5.77
2022-12-19T08:19:50.892Z,8.23
2022-12-19T08:22:19.320Z,8.27
2022-12-19T08:24:47.682Z,7.10
2022-12-19T08:27:17.408Z,10.37
2022-12-19T08:29:45.909Z,11.50
2022-12-19T08:32:20.906Z,8.57
2022-12-19T08:34:50.040Z,8.07
2022-12-19T08:37:18.697Z,7.23
2022-12-19T08:39:47.049Z,7.47
2022-12-19T08:42:15.632Z,9.63
2022-12-19T08:44:44.015Z,9.23
2022-12-19T08:47:12.748Z,9.23
2022-12-19T08:49:42.550Z,8.17
2022-12-19T08:52:10.860Z,10.80
2022-12-19T08:54:39.448Z,10.93
2022-12-19T08:57:07.782Z,10.57
2022-12-19T08:59:36.100Z,9.27
2022-12-19T09:02:06.064Z,7.30
2022-12-19T09:06:00.193Z,12.97
2022-12-19T09:07:24.481Z,7.67
2022-12-19T09:09:52.795Z,7.03
2022-12-19T09:12:21.402Z,9.23
2022-12-19T09:14:49.724Z,7.97
2022-12-19T09:17:18.169Z,7.30
2022-12-19T09:19:47.762Z,8.47
2022-12-19T09:22:16.790Z,9.57
2022-12-19T09:24:47.509Z,10.73
2022-12-19T09:27:15.852Z,9.40
2022-12-19T09:29:44.674Z,8.37
2022-12-19T09:32:13.099Z,11.27
2022-12-19T09:34:41.461Z,9.50
2022-12-19T09:37:16.864Z,8.97
2022-12-19T09:39:47.415Z,10.53
2022-12-19T09:42:26.404Z,10.00
2022-12-19T09:45:11.192Z,10.30
2022-12-19T09:47:48.959Z,9.90
2022-12-19T09:50:24.821Z,11.63
2022-12-19T09:52:57.279Z,11.03
2022-12-19T09:55:29.920Z,9.97
2022-12-19T09:58:01.251Z,15.83
2022-12-19T10:00:35.715Z,12.40
2022-12-19T10:03:06.866Z,15.43
2022-12-19T10:06:34.564Z,11.27
2022-12-19T10:08:31.827Z,11.27
2022-12-19T10:12:40.262Z,11.43
2022-12-19T10:14:04.618Z,9.80
2022-12-19T10:16:37.557Z,10.60
2022-12-19T10:19:08.197Z,11.97
2022-12-19T10:24:35.098Z,11.87
2022-12-19T10:27:11.067Z,12.73
2022-12-19T10:29:53.824Z,8.57
2022-12-19T10:32:26.054Z,11.73
2022-12-19T10:34:55.050Z,11.53
2022-12-19T10:37:35.229Z,13.60
2022-12-19T10:40:27.860Z,11.70
2022-12-19T10:43:01.348Z,10.90
2022-12-19T10:45:41.133Z,10.27
2022-12-19T10:48:16.499Z,9.13
2022-12-19T10:50:47.305Z,11.97
2022-12-19T10:53:16.276Z,14.13
2022-12-19T10:55:46.291Z,15.13
2022-12-19T10:58:21.192Z,12.10
2022-12-19T11:01:02.941Z,11.00
2022-12-19T11:03:31.363Z,9.43
2022-12-19T11:06:00.412Z,14.77
2022-12-19T11:08:29.638Z,13.10
2022-12-19T11:14:30.798Z,11.53
2022-12-19T11:19:13.645Z,10.93
2022-12-19T11:21:26.892Z,12.53
2022-12-19T11:29:16.227Z,8.50
2022-12-19T11:29:30.354Z,12.63
2022-12-19T11:29:37.053Z,13.37
2022-12-19T11:29:54.116Z,18.83
2022-12-19T11:33:55.819Z,14.90
2022-12-19T11:36:31.227Z,12.33
2022-12-19T11:38:59.719Z,17.97
2022-12-19T11:41:34.869Z,12.33
2022-12-19T11:44:04.665Z,9.80
2022-12-19T11:46:40.343Z,10.10
2022-12-19T11:49:13.863Z,11.33
2022-12-19T11:51:45.403Z,11.30
2022-12-19T11:54:17.762Z,9.00
2022-12-19T11:56:46.122Z,10.20
2022-12-19T11:59:18.932Z,9.33
2022-12-19T12:02:00.368Z,10.63
2022-12-19T12:04:50.055Z,11.73
2022-12-19T12:07:49.437Z,10.53
2022-12-19T12:15:11.272Z,11.70
2022-12-19T12:24:14.155Z,11.87
2022-12-19T12:30:43.372Z,13.20
2022-12-19T12:31:12.902Z,10.27
2022-12-19T12:31:21.634Z,9.27
2022-12-19T12:31:51.538Z,15.20
2022-12-19T12:31:59.018Z,15.80
2022-12-19T12:35:13.513Z,14.37
2022-12-19T12:35:51.087Z,17.73
2022-12-19T12:39:20.656Z,9.53
2022-12-19T12:42:05.683Z,7.07
2022-12-19T12:44:41.099Z,8.80
2022-12-19T12:47:18.719Z,8.40
2022-12-19T12:49:49.012Z,8.70
2022-12-19T12:52:20.119Z,9.10
2022-12-19T12:54:50.720Z,6.97
2022-12-19T12:57:35.976Z,7.23
2022-12-19T13:00:21.895Z,8.63
2022-12-19T13:02:53.799Z,7.40
2022-12-19T13:05:39.153Z,9.10
2022-12-19T13:08:22.349Z,7.40
2022-12-19T13:10:57.583Z,6.47
2022-12-19T13:13:39.788Z,8.53
2022-12-19T13:16:41.766Z,11.90
2022-12-19T13:19:22.551Z,6.40
2022-12-19T13:22:37.682Z,6.83
2022-12-19T13:25:28.906Z,11.23
2022-12-19T13:28:00.697Z,6.20
2022-12-19T13:30:30.118Z,10.90
2022-12-19T13:33:09.386Z,8.10
2022-12-19T13:39:08.275Z,8.43
2022-12-19T13:39:55.158Z,8.53
2022-12-19T13:41:48.069Z,9.63
2022-12-19T13:44:20.148Z,6.03
2022-12-19T13:46:48.560Z,10.30
2022-12-19T13:49:19.516Z,10.27
2022-12-19T13:51:50.187Z,7.33
2022-12-19T13:54:23.864Z,11.37
2022-12-19T13:56:52.550Z,10.10
2022-12-19T13:59:21.197Z,9.00
2022-12-19T14:01:50.227Z,8.60
2022-12-19T14:04:27.511Z,8.73
2022-12-19T14:07:00.519Z,9.10
2022-12-19T14:11:28.445Z,7.37
2022-12-19T14:13:47.307Z,8.37
2022-12-19T14:15:26.355Z,6.47
2022-12-19T14:17:54.705Z,8.23
2022-12-19T14:22:06.688Z,12.07
2022-12-19T14:23:14.214Z,14.07
2022-12-19T14:28:14.536Z,11.27
2022-12-19T14:28:38.832Z,9.80
2022-12-19T14:31:09.718Z,8.03
2022-12-19T14:33:54.170Z,9.90
2022-12-19T14:36:29.228Z,7.73
2022-12-19T14:39:27.821Z,7.83
2022-12-19T14:42:07.726Z,6.23
2022-12-19T14:54:04.970Z,8.70
2022-12-19T14:54:06.400Z,6.77
2022-12-19T14:54:13.316Z,11.03
2022-12-19T14:54:27.812Z,7.17
2022-12-19T14:56:28.097Z,9.03
2022-12-19T14:59:00.800Z,10.23
2022-12-19T15:01:30.648Z,7.67
2022-12-19T15:04:50.710Z,10.23
2022-12-19T15:07:10.097Z,5.60
2022-12-19T15:11:09.163Z,11.73
2022-12-19T15:14:47.838Z,6.97
2022-12-19T15:15:41.270Z,10.20
2022-12-19T15:18:30.644Z,7.33
2022-12-19T15:21:00.182Z,6.20
2022-12-19T15:23:28.630Z,8.90
2022-12-19T15:26:06.658Z,7.43
2022-12-19T15:28:39.317Z,7.17
2022-12-19T15:31:11.772Z,9.73
2022-12-19T15:33:59.825Z,12.00
2022-12-19T15:36:28.499Z,6.97
2022-12-19T15:38:56.831Z,11.77
2022-12-19T15:41:25.963Z,6.57
2022-12-19T15:44:04.772Z,7.93
2022-12-19T15:46:34.135Z,8.57
2022-12-19T15:49:02.446Z,6.53
2022-12-19T15:51:31.030Z,7.17
2022-12-19T15:54:22.116Z,9.93
2022-12-19T15:56:50.086Z,6.90
2022-12-19T15:59:23.476Z,9.20
2022-12-19T16:01:52.530Z,7.40
2022-12-19T16:04:21.354Z,6.13
2022-12-19T16:06:49.777Z,6.90
2022-12-19T16:09:20.910Z,10.90
2022-12-19T16:11:49.432Z,5.90
2022-12-19T16:14:18.309Z,7.80
2022-12-19T16:16:53.293Z,6.00
2022-12-19T16:19:25.620Z,6.47
2022-12-19T16:21:54.245Z,6.47
2022-12-19T16:24:22.680Z,8.37
2022-12-19T16:26:53.448Z,6.67
2022-12-19T16:29:22.503Z,5.73
2022-12-19T16:31:52.744Z,6.13
2022-12-19T16:34:22.462Z,5.57
2022-12-19T16:36:50.971Z,8.07
2022-12-19T16:39:19.699Z,5.53
2022-12-19T16:41:48.692Z,5.60
2022-12-19T16:44:19.609Z,6.90
2022-12-19T16:46:51.049Z,7.20
2022-12-19T16:49:23.239Z,5.83
2022-12-19T16:51:51.583Z,5.10
2022-12-19T16:54:20.102Z,6.50
2022-12-19T16:56:49.952Z,8.83
2022-12-19T16:59:21.783Z,5.97
2022-12-19T17:01:51.109Z,4.90
2022-12-19T17:04:22.574Z,4.57
2022-12-19T17:06:51.445Z,7.10
2022-12-19T17:09:20.712Z,7.27
2022-12-19T17:11:51.549Z,10.13
2022-12-19T17:14:22.079Z,7.17
2022-12-19T17:16:53.693Z,4.53
2022-12-19T17:19:27.011Z,7.80
2022-12-19T17:21:55.380Z,5.10
2022-12-19T17:24:23.467Z,6.77
2022-12-19T17:26:51.802Z,5.57
2022-12-19T17:29:20.168Z,7.27
2022-12-19T17:31:48.576Z,4.53
2022-12-19T17:34:18.295Z,6.00
2022-12-19T17:36:48.040Z,7.77
2022-12-19T17:39:20.537Z,6.93
2022-12-19T17:41:48.942Z,8.33
2022-12-19T17:44:17.266Z,5.17
2022-12-19T17:46:46.276Z,5.30
2022-12-19T17:49:17.650Z,7.43
2022-12-19T17:51:50.480Z,5.47
2022-12-19T17:54:18.776Z,5.60
2022-12-19T17:56:47.070Z,5.50
2022-12-19T17:59:15.363Z,6.10
2022-12-19T18:01:46.392Z,5.57
2022-12-19T18:04:15.982Z,9.70
2022-12-19T18:06:44.733Z,5.77
2022-12-19T18:09:19.905Z,8.03
2022-12-19T18:11:48.571Z,8.30
2022-12-19T18:14:17.278Z,5.63
2022-12-19T18:16:45.774Z,7.13
2022-12-19T18:19:17.541Z,7.23
2022-12-19T18:21:45.973Z,6.10
2022-12-19T18:24:16.486Z,9.23
2022-12-19T18:26:46.582Z,9.60
2022-12-19T18:29:15.246Z,8.17
2022-12-19T18:31:50.009Z,7.70
2022-12-19T18:34:20.544Z,8.80
2022-12-19T18:36:48.962Z,14.40
2022-12-19T18:39:21.422Z,14.63
2022-12-19T18:41:51.703Z,8.80
2022-12-19T18:44:20.352Z,9.97
2022-12-19T18:46:50.437Z,5.87
2022-12-19T18:49:19.493Z,6.53
2022-12-19T18:51:47.707Z,10.17
2022-12-19T18:54:17.143Z,4.90
2022-12-19T18:56:45.869Z,7.13
2022-12-19T18:59:15.572Z,6.43
2022-12-19T19:01:44.995Z,7.37
2022-12-19T19:04:17.540Z,12.57
2022-12-19T19:06:51.649Z,5.80
2022-12-19T19:09:21.675Z,6.53
2022-12-19T19:11:49.745Z,10.80
2022-12-19T19:14:19.121Z,8.13
2022-12-19T19:16:47.421Z,13.90
2022-12-19T19:19:17.390Z,6.97
2022-12-19T19:21:45.753Z,5.80
2022-12-19T19:24:17.144Z,4.87
2022-12-19T19:26:45.463Z,4.97
2022-12-19T19:29:15.026Z,7.67
2022-12-19T19:31:46.704Z,7.53
2022-12-19T19:34:17.444Z,5.07
2022-12-19T19:36:49.451Z,4.90
2022-12-19T19:39:19.881Z,5.20
2022-12-19T19:41:48.293Z,4.37
2022-12-19T19:44:16.668Z,4.57
2022-12-19T19:46:46.226Z,6.27
2022-12-19T19:49:15.462Z,4.30
2022-12-19T19:51:43.940Z,5.13
2022-12-19T19:54:12.282Z,4.40
2022-12-19T19:56:40.784Z,4.37
2022-12-19T19:59:09.125Z,6.23
2022-12-19T20:01:37.591Z,5.13
2022-12-19T20:04:07.402Z,6.93
2022-12-19T20:06:35.806Z,5.30
2022-12-19T20:09:04.134Z,4.67
2022-12-19T20:11:32.468Z,4.30
2022-12-19T20:14:00.834Z,8.27
2022-12-19T20:16:29.223Z,4.23
2022-12-19T20:18:57.690Z,6.53
2022-12-19T20:21:27.161Z,4.47
2022-12-19T20:23:55.523Z,4.23
2022-12-19T20:26:24.070Z,4.80
2022-12-19T20:28:52.928Z,4.17
2022-12-19T20:31:22.058Z,4.40
2022-12-19T20:33:50.773Z,4.30
2022-12-19T20:36:19.045Z,5.00
2022-12-19T20:38:48.828Z,4.23
2022-12-19T20:41:17.416Z,4.43
2022-12-19T20:43:45.882Z,4.83
2022-12-19T20:46:16.010Z,11.37
2022-12-19T20:48:44.871Z,4.47
2022-12-19T20:51:13.395Z,4.20
2022-12-19T20:53:42.762Z,4.83
2022-12-19T20:56:15.357Z,4.80
2022-12-19T20:58:43.968Z,4.97
2022-12-19T21:01:13.758Z,5.97
2022-12-19T21:03:42.765Z,5.17
2022-12-19T21:06:12.220Z,5.67
2022-12-19T21:08:40.623Z,4.83
2022-12-19T21:11:09.706Z,4.70
2022-12-19T21:13:41.027Z,3.97
2022-12-19T21:16:10.710Z,5.03
2022-12-19T21:18:40.629Z,6.40
2022-12-19T21:21:12.145Z,5.00
2022-12-19T21:23:40.512Z,6.23
2022-12-19T21:26:09.000Z,8.10
2022-12-19T21:28:38.803Z,4.87
2022-12-19T21:31:08.934Z,4.83
2022-12-19T21:33:37.347Z,7.50
2022-12-19T21:36:09.686Z,6.00
2022-12-19T21:38:38.077Z,5.40
2022-12-19T21:41:07.583Z,4.87
2022-12-19T21:43:36.670Z,8.13
2022-12-19T21:46:08.628Z,5.13
2022-12-19T21:48:38.798Z,5.17
2022-12-19T21:51:07.608Z,5.20
2022-12-19T21:53:36.418Z,7.20
2022-12-19T21:56:06.444Z,4.97
2022-12-19T21:58:35.017Z,5.00
2022-12-19T22:01:09.379Z,5.37
2022-12-19T22:03:38.095Z,5.07
2022-12-19T22:06:08.659Z,5.30
2022-12-19T22:08:37.541Z,5.33
2022-12-19T22:11:10.243Z,5.27
2022-12-19T22:13:38.600Z,5.10
2022-12-19T22:16:08.783Z,5.10
2022-12-19T22:18:37.285Z,4.97
2022-12-19T22:21:06.113Z,5.10
2022-12-19T22:23:34.791Z,5.43
2022-12-19T22:26:04.492Z,5.17
2022-12-19T22:28:33.570Z,4.73
2022-12-19T22:31:02.102Z,4.83
2022-12-19T22:33:31.845Z,5.67
2022-12-19T22:36:06.024Z,4.80
2022-12-19T22:38:34.514Z,5.07
2022-12-19T22:41:05.234Z,4.97
2022-12-19T22:43:35.315Z,4.87
2022-12-19T22:46:11.240Z,5.47
2022-12-19T22:48:41.545Z,5.47
2022-12-19T22:51:10.522Z,4.80
2022-12-19T22:53:39.468Z,5.47
2022-12-19T22:56:09.815Z,5.57
2022-12-19T22:58:38.494Z,5.40
2022-12-19T23:01:14.250Z,5.20
2022-12-19T23:03:44.207Z,5.20
2022-12-19T23:06:12.712Z,5.30
2022-12-19T23:08:41.488Z,5.83
2022-12-19T23:11:12.375Z,5.67
2022-12-19T23:13:41.064Z,5.50
2022-12-19T23:16:09.801Z,5.87
2022-12-19T23:18:38.435Z,5.90
2022-12-19T23:21:10.218Z,5.13
2022-12-19T23:23:39.942Z,5.20
2022-12-19T23:26:15.058Z,4.93
2022-12-19T23:28:44.316Z,5.10
2022-12-19T23:31:13.683Z,5.90
2022-12-19T23:33:42.024Z,4.67
2022-12-19T23:36:11.729Z,4.63
2022-12-19T23:38:40.655Z,4.77
2022-12-19T23:41:11.178Z,5.13
2022-12-19T23:43:39.573Z,7.07
2022-12-19T23:46:08.460Z,5.23
2022-12-19T23:48:37.015Z,5.63
2022-12-19T23:51:07.973Z,6.30
2022-12-19T23:53:37.619Z,5.93
2022-12-19T23:56:08.585Z,5.40
2022-12-19T23:58:36.912Z,5.53
